sensor_id;sensor_type;location;lat;lon;timestamp;pressure;altitude;pressure_sealevel;temperature;humidity
36260;BME280;22296;50.824;5.644;2023-02-10T00:01:15;102665.81;;;11.87;56.96
36260;BME280;22296;50.824;5.644;2023-02-10T00:03:42;102666.88;;;11.86;56.99
36260;BME280;22296;50.824;5.644;2023-02-10T00:06:10;102665.19;;;11.85;57.06
36260;BME280;22296;50.824;5.644;2023-02-10T00:08:38;102670.44;;;11.82;57.36
36260;BME280;22296;50.824;5.644;2023-02-10T00:11:07;102673.44;;;11.80;57.39
36260;BME280;22296;50.824;5.644;2023-02-10T00:13:37;102672.59;;;11.80;57.34
36260;BME280;22296;50.824;5.644;2023-02-10T00:16:06;102667.31;;;11.78;57.55
36260;BME280;22296;50.824;5.644;2023-02-10T00:18:33;102670.94;;;11.79;57.43
36260;BME280;22296;50.824;5.644;2023-02-10T00:21:15;102670.59;;;11.75;57.57
36260;BME280;22296;50.824;5.644;2023-02-10T00:23:43;102683.00;;;11.73;57.69
36260;BME280;22296;50.824;5.644;2023-02-10T00:26:11;102675.22;;;11.70;57.59
36260;BME280;22296;50.824;5.644;2023-02-10T00:28:42;102674.63;;;11.68;57.63
36260;BME280;22296;50.824;5.644;2023-02-10T00:31:12;102674.00;;;11.66;57.89
36260;BME280;22296;50.824;5.644;2023-02-10T00:33:40;102659.88;;;11.62;57.79
36260;BME280;22296;50.824;5.644;2023-02-10T00:36:09;102668.97;;;11.63;57.83
36260;BME280;22296;50.824;5.644;2023-02-10T00:38:38;102670.34;;;11.60;58.06
36260;BME280;22296;50.824;5.644;2023-02-10T00:41:08;102675.28;;;11.58;58.04
36260;BME280;22296;50.824;5.644;2023-02-10T00:43:36;102687.41;;;11.57;57.97
36260;BME280;22296;50.824;5.644;2023-02-10T00:46:03;102694.06;;;11.56;58.12
36260;BME280;22296;50.824;5.644;2023-02-10T00:48:30;102688.25;;;11.58;57.88
36260;BME280;22296;50.824;5.644;2023-02-10T00:50:58;102683.00;;;11.56;57.89
36260;BME280;22296;50.824;5.644;2023-02-10T00:53:25;102684.66;;;11.57;57.91
36260;BME280;22296;50.824;5.644;2023-02-10T00:55:52;102690.19;;;11.57;57.93
36260;BME280;22296;50.824;5.644;2023-02-10T00:58:21;102696.22;;;11.54;57.96
36260;BME280;22296;50.824;5.644;2023-02-10T01:00:48;102699.25;;;11.53;57.99
36260;BME280;22296;50.824;5.644;2023-02-10T01:03:15;102694.22;;;11.50;57.93
36260;BME280;22296;50.824;5.644;2023-02-10T01:05:42;102704.19;;;11.51;57.80
36260;BME280;22296;50.824;5.644;2023-02-10T01:08:11;102696.13;;;11.49;58.03
36260;BME280;22296;50.824;5.644;2023-02-10T01:10:38;102695.56;;;11.47;58.19
36260;BME280;22296;50.824;5.644;2023-02-10T01:13:06;102700.47;;;11.45;58.11
36260;BME280;22296;50.824;5.644;2023-02-10T01:15:33;102703.50;;;11.43;58.16
36260;BME280;22296;50.824;5.644;2023-02-10T01:18:01;102701.59;;;11.44;58.34
36260;BME280;22296;50.824;5.644;2023-02-10T01:20:27;102705.44;;;11.43;58.22
36260;BME280;22296;50.824;5.644;2023-02-10T01:22:55;102708.19;;;11.43;58.17
36260;BME280;22296;50.824;5.644;2023-02-10T01:25:21;102716.47;;;11.43;58.13
36260;BME280;22296;50.824;5.644;2023-02-10T01:27:49;102708.13;;;11.38;58.27
36260;BME280;22296;50.824;5.644;2023-02-10T01:30:15;102706.19;;;11.38;58.27
36260;BME280;22296;50.824;5.644;2023-02-10T01:32:42;102708.97;;;11.38;58.31
36260;BME280;22296;50.824;5.644;2023-02-10T01:35:09;102717.47;;;11.37;58.29
36260;BME280;22296;50.824;5.644;2023-02-10T01:37:36;102722.16;;;11.36;58.40
36260;BME280;22296;50.824;5.644;2023-02-10T01:40:04;102716.31;;;11.33;58.35
36260;BME280;22296;50.824;5.644;2023-02-10T01:42:31;102715.47;;;11.32;58.53
36260;BME280;22296;50.824;5.644;2023-02-10T01:47:50;102716.81;;;11.30;58.33
36260;BME280;22296;50.824;5.644;2023-02-10T01:50:21;102726.19;;;11.29;58.29
36260;BME280;22296;50.824;5.644;2023-02-10T01:52:48;102720.09;;;11.27;58.47
36260;BME280;22296;50.824;5.644;2023-02-10T01:55:19;102731.13;;;11.27;58.67
36260;BME280;22296;50.824;5.644;2023-02-10T01:57:47;102733.91;;;11.27;58.59
36260;BME280;22296;50.824;5.644;2023-02-10T02:00:15;102742.41;;;11.25;58.45
36260;BME280;22296;50.824;5.644;2023-02-10T02:02:43;102739.91;;;11.24;58.38
36260;BME280;22296;50.824;5.644;2023-02-10T02:05:21;102738.50;;;11.21;58.62
36260;BME280;22296;50.824;5.644;2023-02-10T02:07:50;102738.22;;;11.23;58.71
36260;BME280;22296;50.824;5.644;2023-02-10T02:10:17;102738.22;;;11.23;58.52
36260;BME280;22296;50.824;5.644;2023-02-10T02:13:03;102743.75;;;11.23;58.39
36260;BME280;22296;50.824;5.644;2023-02-10T02:15:44;102743.75;;;11.23;58.46
36260;BME280;22296;50.824;5.644;2023-02-10T02:18:40;102743.41;;;11.19;58.41
36260;BME280;22296;50.824;5.644;2023-02-10T02:32:19;102743.09;;;11.16;58.86
36260;BME280;22296;50.824;5.644;2023-02-10T02:34:51;102741.41;;;11.15;58.50
36260;BME280;22296;50.824;5.644;2023-02-10T02:37:30;102733.38;;;11.13;58.78
36260;BME280;22296;50.824;5.644;2023-02-10T02:39:57;102746.94;;;11.15;58.51
36260;BME280;22296;50.824;5.644;2023-02-10T02:42:26;102739.72;;;11.14;58.76
36260;BME280;22296;50.824;5.644;2023-02-10T02:44:57;102749.94;;;11.13;58.52
36260;BME280;22296;50.824;5.644;2023-02-10T02:47:54;102748.25;;;11.12;58.71
36260;BME280;22296;50.824;5.644;2023-02-10T02:59:06;102751.75;;;11.08;58.57
36260;BME280;22296;50.824;5.644;2023-02-10T03:01:48;102749.59;;;11.10;58.65
36260;BME280;22296;50.824;5.644;2023-02-10T03:04:20;102746.22;;;11.08;58.66
36260;BME280;22296;50.824;5.644;2023-02-10T03:06:47;102742.88;;;11.06;58.69
36260;BME280;22296;50.824;5.644;2023-02-10T03:09:15;102751.44;;;11.04;58.79
36260;BME280;22296;50.824;5.644;2023-02-10T03:11:42;102750.59;;;11.04;58.79
36260;BME280;22296;50.824;5.644;2023-02-10T03:14:09;102748.66;;;11.04;58.72
36260;BME280;22296;50.824;5.644;2023-02-10T03:16:36;102748.31;;;11.01;58.75
36260;BME280;22296;50.824;5.644;2023-02-10T03:19:03;102745.56;;;11.01;58.98
36260;BME280;22296;50.824;5.644;2023-02-10T03:21:30;102744.72;;;11.00;58.83
36260;BME280;22296;50.824;5.644;2023-02-10T03:23:56;102739.47;;;10.99;58.86
36260;BME280;22296;50.824;5.644;2023-02-10T03:26:23;102727.00;;;10.96;58.95
36260;BME280;22296;50.824;5.644;2023-02-10T03:28:50;102717.88;;;10.96;58.89
36260;BME280;22296;50.824;5.644;2023-02-10T03:31:17;102705.72;;;10.97;59.13
36260;BME280;22296;50.824;5.644;2023-02-10T03:33:44;102705.72;;;10.97;58.83
36260;BME280;22296;50.824;5.644;2023-02-10T03:36:12;102701.53;;;10.94;58.92
36260;BME280;22296;50.824;5.644;2023-02-10T03:38:38;102702.38;;;10.95;58.87
36260;BME280;22296;50.824;5.644;2023-02-10T03:41:05;102702.03;;;10.91;59.02
36260;BME280;22296;50.824;5.644;2023-02-10T03:43:32;102694.00;;;10.90;58.93
36260;BME280;22296;50.824;5.644;2023-02-10T03:46:00;102701.19;;;10.91;58.87
36260;BME280;22296;50.824;5.644;2023-02-10T03:48:27;102703.94;;;10.91;58.93
36260;BME280;22296;50.824;5.644;2023-02-10T03:51:02;102711.91;;;10.87;59.35
36260;BME280;22296;50.824;5.644;2023-02-10T03:53:30;102716.59;;;10.86;59.14
36260;BME280;22296;50.824;5.644;2023-02-10T03:55:57;102719.09;;;10.88;59.06
36260;BME280;22296;50.824;5.644;2023-02-10T03:58:24;102717.91;;;10.84;59.17
36260;BME280;22296;50.824;5.644;2023-02-10T04:00:51;102720.41;;;10.85;58.90
36260;BME280;22296;50.824;5.644;2023-02-10T04:03:18;102729.81;;;10.84;58.96
36260;BME280;22296;50.824;5.644;2023-02-10T04:05:45;102723.09;;;10.80;59.25
36260;BME280;22296;50.824;5.644;2023-02-10T04:08:13;102725.59;;;10.82;59.08
36260;BME280;22296;50.824;5.644;2023-02-10T04:10:40;102729.44;;;10.81;58.96
36260;BME280;22296;50.824;5.644;2023-02-10T04:13:07;102730.28;;;10.81;59.24
36260;BME280;22296;50.824;5.644;2023-02-10T04:15:34;102730.78;;;10.78;59.30
36260;BME280;22296;50.824;5.644;2023-02-10T04:18:00;102737.97;;;10.79;59.18
36260;BME280;22296;50.824;5.644;2023-02-10T04:20:27;102736.31;;;10.78;59.03
36260;BME280;22296;50.824;5.644;2023-02-10T04:22:54;102742.91;;;10.77;59.37
36260;BME280;22296;50.824;5.644;2023-02-10T04:25:21;102747.84;;;10.75;59.17
36260;BME280;22296;50.824;5.644;2023-02-10T04:27:48;102746.16;;;10.74;59.40
36260;BME280;22296;50.824;5.644;2023-02-10T04:30:15;102747.13;;;10.68;59.33
36260;BME280;22296;50.824;5.644;2023-02-10T04:32:42;102763.47;;;10.70;59.35
36260;BME280;22296;50.824;5.644;2023-02-10T04:35:08;102762.34;;;10.71;59.12
36260;BME280;22296;50.824;5.644;2023-02-10T04:37:35;102761.19;;;10.67;59.27
36260;BME280;22296;50.824;5.644;2023-02-10T04:40:02;102762.03;;;10.67;59.35
36260;BME280;22296;50.824;5.644;2023-02-10T04:42:29;102762.03;;;10.67;59.32
36260;BME280;22296;50.824;5.644;2023-02-10T04:44:57;102758.16;;;10.68;59.26
36260;BME280;22296;50.824;5.644;2023-02-10T04:47:26;102763.09;;;10.66;59.36
36260;BME280;22296;50.824;5.644;2023-02-10T04:49:53;102758.06;;;10.63;59.46
36260;BME280;22296;50.824;5.644;2023-02-10T04:52:20;102766.34;;;10.63;59.35
36260;BME280;22296;50.824;5.644;2023-02-10T04:54:47;102763.00;;;10.61;59.41
36260;BME280;22296;50.824;5.644;2023-02-10T04:57:16;102761.31;;;10.60;59.49
36260;BME280;22296;50.824;5.644;2023-02-10T04:59:43;102754.09;;;10.59;59.69
36260;BME280;22296;50.824;5.644;2023-02-10T05:02:10;102763.50;;;10.58;59.53
36260;BME280;22296;50.824;5.644;2023-02-10T05:04:37;102759.63;;;10.59;59.42
36260;BME280;22296;50.824;5.644;2023-02-10T05:07:04;102752.44;;;10.58;59.52
36260;BME280;22296;50.824;5.644;2023-02-10T05:09:31;102743.56;;;10.56;59.75
36260;BME280;22296;50.824;5.644;2023-02-10T05:11:58;102748.50;;;10.54;59.60
36260;BME280;22296;50.824;5.644;2023-02-10T05:14:25;102752.94;;;10.55;59.71
36260;BME280;22296;50.824;5.644;2023-02-10T05:16:52;102751.25;;;10.54;59.44
36260;BME280;22296;50.824;5.644;2023-02-10T05:19:19;102758.47;;;10.55;59.48
36260;BME280;22296;50.824;5.644;2023-02-10T05:21:45;102751.25;;;10.54;59.59
36260;BME280;22296;50.824;5.644;2023-02-10T05:24:12;102757.84;;;10.53;59.76
36260;BME280;22296;50.824;5.644;2023-02-10T05:26:39;102751.75;;;10.51;59.56
36260;BME280;22296;50.824;5.644;2023-02-10T05:29:06;102755.59;;;10.50;59.52
36260;BME280;22296;50.824;5.644;2023-02-10T05:31:33;102752.22;;;10.48;59.65
36260;BME280;22296;50.824;5.644;2023-02-10T05:34:00;102750.91;;;10.51;59.31
36260;BME280;22296;50.824;5.644;2023-02-10T05:36:27;102753.31;;;10.47;59.67
36260;BME280;22296;50.824;5.644;2023-02-10T05:38:53;102759.91;;;10.46;59.58
36260;BME280;22296;50.824;5.644;2023-02-10T05:41:39;102762.09;;;10.44;59.57
36260;BME280;22296;50.824;5.644;2023-02-10T05:44:05;102776.69;;;10.45;59.59
36260;BME280;22296;50.824;5.644;2023-02-10T05:46:32;102778.16;;;10.47;59.54
36260;BME280;22296;50.824;5.644;2023-02-10T05:48:59;102771.19;;;10.45;59.78
36260;BME280;22296;50.824;5.644;2023-02-10T05:51:26;102769.25;;;10.45;59.55
36260;BME280;22296;50.824;5.644;2023-02-10T05:53:52;102773.13;;;10.44;59.65
36260;BME280;22296;50.824;5.644;2023-02-10T05:56:20;102771.44;;;10.43;59.71
36260;BME280;22296;50.824;5.644;2023-02-10T05:58:47;102769.75;;;10.42;59.72
36260;BME280;22296;50.824;5.644;2023-02-10T06:01:14;102769.75;;;10.42;59.61
36260;BME280;22296;50.824;5.644;2023-02-10T06:03:40;102770.22;;;10.39;59.73
36260;BME280;22296;50.824;5.644;2023-02-10T06:06:07;102773.84;;;10.40;59.61
36260;BME280;22296;50.824;5.644;2023-02-10T06:08:34;102773.25;;;10.38;59.78
36260;BME280;22296;50.824;5.644;2023-02-10T06:11:01;102767.72;;;10.38;59.89
36260;BME280;22296;50.824;5.644;2023-02-10T06:13:28;102769.91;;;10.36;59.79
36260;BME280;22296;50.824;5.644;2023-02-10T06:15:55;102776.22;;;10.36;59.74
36260;BME280;22296;50.824;5.644;2023-02-10T06:18:22;102773.13;;;10.44;59.66
36260;BME280;22296;50.824;5.644;2023-02-10T06:20:49;102774.66;;;10.52;60.10
36260;BME280;22296;50.824;5.644;2023-02-10T06:23:17;102782.94;;;10.40;60.32
36260;BME280;22296;50.824;5.644;2023-02-10T06:25:44;102785.59;;;10.35;60.12
36260;BME280;22296;50.824;5.644;2023-02-10T06:28:11;102781.41;;;10.33;60.15
36260;BME280;22296;50.824;5.644;2023-02-10T06:30:37;102787.16;;;10.31;59.93
36260;BME280;22296;50.824;5.644;2023-02-10T06:33:04;102788.47;;;10.28;60.01
36260;BME280;22296;50.824;5.644;2023-02-10T06:35:31;102790.41;;;10.28;60.10
36260;BME280;22296;50.824;5.644;2023-02-10T06:37:58;102788.97;;;10.25;60.32
36260;BME280;22296;50.824;5.644;2023-02-10T06:40:25;102800.00;;;10.25;60.10
36260;BME280;22296;50.824;5.644;2023-02-10T06:42:52;102803.22;;;10.22;60.19
36260;BME280;22296;50.824;5.644;2023-02-10T06:45:19;102798.19;;;10.19;60.18
36260;BME280;22296;50.824;5.644;2023-02-10T06:47:46;102807.56;;;10.18;60.14
36260;BME280;22296;50.824;5.644;2023-02-10T06:50:14;102802.06;;;10.18;60.00
36260;BME280;22296;50.824;5.644;2023-02-10T06:52:41;102809.13;;;10.14;60.22
36260;BME280;22296;50.824;5.644;2023-02-10T06:55:08;102816.78;;;10.12;60.09
36260;BME280;22296;50.824;5.644;2023-02-10T06:57:36;102808.97;;;10.09;60.10
36260;BME280;22296;50.824;5.644;2023-02-10T07:00:04;102802.13;;;10.12;60.15
36260;BME280;22296;50.824;5.644;2023-02-10T07:02:34;102794.00;;;10.17;60.49
36260;BME280;22296;50.824;5.644;2023-02-10T07:05:03;102804.31;;;10.10;60.22
36260;BME280;22296;50.824;5.644;2023-02-10T07:07:32;102799.00;;;10.08;60.30
36260;BME280;22296;50.824;5.644;2023-02-10T07:09:58;102800.69;;;10.09;60.08
36260;BME280;22296;50.824;5.644;2023-02-10T07:12:25;102801.78;;;10.08;60.17
36260;BME280;22296;50.824;5.644;2023-02-10T07:14:52;102799.75;;;10.04;60.05
36260;BME280;22296;50.824;5.644;2023-02-10T07:17:20;102801.41;;;10.05;59.88
36260;BME280;22296;50.824;5.644;2023-02-10T07:19:47;102809.56;;;10.00;60.05
36260;BME280;22296;50.824;5.644;2023-02-10T07:22:14;102807.41;;;10.02;59.88
36260;BME280;22296;50.824;5.644;2023-02-10T07:24:40;102807.06;;;9.98;59.98
36260;BME280;22296;50.824;5.644;2023-02-10T07:27:08;102799.84;;;9.97;60.07
36260;BME280;22296;50.824;5.644;2023-02-10T07:29:35;102800.94;;;9.96;59.89
36260;BME280;22296;50.824;5.644;2023-02-10T07:32:01;102798.41;;;9.95;60.06
36260;BME280;22296;50.824;5.644;2023-02-10T07:34:28;102803.34;;;9.93;60.01
36260;BME280;22296;50.824;5.644;2023-02-10T07:36:56;102806.09;;;9.93;60.02
36260;BME280;22296;50.824;5.644;2023-02-10T07:39:24;102805.84;;;9.94;59.54
36260;BME280;22296;50.824;5.644;2023-02-10T07:41:50;102807.53;;;9.95;59.83
36260;BME280;22296;50.824;5.644;2023-02-10T07:44:19;102800.59;;;9.93;60.08
36260;BME280;22296;50.824;5.644;2023-02-10T07:46:52;102808.22;;;9.91;59.84
36260;BME280;22296;50.824;5.644;2023-02-10T07:49:18;102814.84;;;9.90;59.98
36260;BME280;22296;50.824;5.644;2023-02-10T07:51:45;102815.06;;;9.88;59.83
36260;BME280;22296;50.824;5.644;2023-02-10T07:54:12;102814.47;;;9.86;60.03
36260;BME280;22296;50.824;5.644;2023-02-10T07:56:39;102814.84;;;9.90;59.93
36260;BME280;22296;50.824;5.644;2023-02-10T07:59:06;102808.13;;;9.86;59.87
36260;BME280;22296;50.824;5.644;2023-02-10T08:01:34;102810.88;;;9.86;59.95
36260;BME280;22296;50.824;5.644;2023-02-10T08:04:08;102806.44;;;9.85;59.85
36260;BME280;22296;50.824;5.644;2023-02-10T08:06:35;102815.16;;;9.82;59.97
36260;BME280;22296;50.824;5.644;2023-02-10T08:09:02;102822.00;;;9.91;60.37
36260;BME280;22296;50.824;5.644;2023-02-10T08:11:30;102825.41;;;10.39;59.94
36260;BME280;22296;50.824;5.644;2023-02-10T08:14:00;102822.06;;;10.88;58.69
36260;BME280;22296;50.824;5.644;2023-02-10T08:16:27;102834.44;;;11.14;58.15
36260;BME280;22296;50.824;5.644;2023-02-10T08:18:54;102826.22;;;11.31;58.17
36260;BME280;22296;50.824;5.644;2023-02-10T08:21:24;102827.19;;;11.53;57.31
36260;BME280;22296;50.824;5.644;2023-02-10T08:23:53;102847.06;;;11.67;56.84
36260;BME280;22296;50.824;5.644;2023-02-10T08:26:21;102843.97;;;11.35;57.20
36260;BME280;22296;50.824;5.644;2023-02-10T08:28:49;102847.81;;;11.34;57.15
36260;BME280;22296;50.824;5.644;2023-02-10T08:31:16;102841.53;;;11.22;57.47
36260;BME280;22296;50.824;5.644;2023-02-10T08:33:43;102836.00;;;11.22;57.54
36260;BME280;22296;50.824;5.644;2023-02-10T08:36:14;102840.91;;;11.20;57.57
36260;BME280;22296;50.824;5.644;2023-02-10T08:38:42;102839.03;;;11.37;58.07
36260;BME280;22296;50.824;5.644;2023-02-10T08:41:10;102839.72;;;11.44;57.33
36260;BME280;22296;50.824;5.644;2023-02-10T08:43:37;102844.28;;;11.50;57.26
36260;BME280;22296;50.824;5.644;2023-02-10T08:46:04;102841.44;;;11.62;56.64
36260;BME280;22296;50.824;5.644;2023-02-10T08:48:32;102833.63;;;11.70;56.60
36260;BME280;22296;50.824;5.644;2023-02-10T08:51:00;102841.84;;;11.82;56.32
36260;BME280;22296;50.824;5.644;2023-02-10T08:53:31;102848.88;;;11.89;56.10
36260;BME280;22296;50.824;5.644;2023-02-10T08:55:59;102840.66;;;11.94;55.82
36260;BME280;22296;50.824;5.644;2023-02-10T08:58:27;102833.25;;;12.00;55.95
36260;BME280;22296;50.824;5.644;2023-02-10T09:00:54;102836.44;;;12.09;55.66
36260;BME280;22296;50.824;5.644;2023-02-10T09:03:20;102828.75;;;12.11;55.59
36260;BME280;22296;50.824;5.644;2023-02-10T09:05:48;102819.69;;;12.15;55.50
36260;BME280;22296;50.824;5.644;2023-02-10T09:08:17;102827.22;;;12.20;55.37
36260;BME280;22296;50.824;5.644;2023-02-10T09:10:45;102839.03;;;12.32;55.17
36260;BME280;22296;50.824;5.644;2023-02-10T09:13:12;102840.72;;;12.33;55.03
36260;BME280;22296;50.824;5.644;2023-02-10T09:15:41;102848.16;;;12.32;55.19
36260;BME280;22296;50.824;5.644;2023-02-10T09:18:09;102844.31;;;12.33;55.05
36260;BME280;22296;50.824;5.644;2023-02-10T09:20:36;102846.66;;;12.41;54.90
36260;BME280;22296;50.824;5.644;2023-02-10T09:23:03;102843.59;;;12.43;54.97
36260;BME280;22296;50.824;5.644;2023-02-10T09:25:30;102843.59;;;12.43;54.82
36260;BME280;22296;50.824;5.644;2023-02-10T09:27:56;102832.88;;;12.46;54.90
36260;BME280;22296;50.824;5.644;2023-02-10T09:30:27;102837.72;;;12.56;54.95
36260;BME280;22296;50.824;5.644;2023-02-10T09:32:54;102835.81;;;12.78;54.88
36260;BME280;22296;50.824;5.644;2023-02-10T09:35:21;102834.44;;;12.81;54.83
36260;BME280;22296;50.824;5.644;2023-02-10T09:37:48;102841.84;;;12.75;54.72
36260;BME280;22296;50.824;5.644;2023-02-10T09:40:29;102844.56;;;12.70;54.67
36260;BME280;22296;50.824;5.644;2023-02-10T09:43:01;102842.34;;;12.72;54.54
36260;BME280;22296;50.824;5.644;2023-02-10T09:45:33;102846.88;;;12.78;54.52
36260;BME280;22296;50.824;5.644;2023-02-10T09:48:41;102847.38;;;12.75;54.29
36260;BME280;22296;50.824;5.644;2023-02-10T09:53:47;102845.00;;;12.84;54.17
36260;BME280;22296;50.824;5.644;2023-02-10T09:56:17;102849.06;;;12.98;54.47
36260;BME280;22296;50.824;5.644;2023-02-10T09:58:51;102846.63;;;13.01;54.23
36260;BME280;22296;50.824;5.644;2023-02-10T10:01:28;102843.66;;;12.86;54.36
36260;BME280;22296;50.824;5.644;2023-02-10T10:04:00;102848.09;;;12.87;54.48
36260;BME280;22296;50.824;5.644;2023-02-10T10:06:29;102853.47;;;13.16;54.04
36260;BME280;22296;50.824;5.644;2023-02-10T10:14:19;102847.94;;;13.16;53.83
36260;BME280;22296;50.824;5.644;2023-02-10T10:30:45;102854.31;;;13.16;53.63
36260;BME280;22296;50.824;5.644;2023-02-10T10:33:33;102842.38;;;13.16;53.87
36260;BME280;22296;50.824;5.644;2023-02-10T10:36:02;102851.03;;;13.19;53.72
36260;BME280;22296;50.824;5.644;2023-02-10T10:38:31;102852.44;;;13.22;53.47
36260;BME280;22296;50.824;5.644;2023-02-10T10:41:05;102856.63;;;13.24;53.65
36260;BME280;22296;50.824;5.644;2023-02-10T10:43:50;102853.22;;;13.17;53.73
36260;BME280;22296;50.824;5.644;2023-02-10T10:48:50;102842.19;;;13.22;53.30
36260;BME280;22296;50.824;5.644;2023-02-10T10:51:17;102856.00;;;13.17;53.55
36260;BME280;22296;50.824;5.644;2023-02-10T10:53:50;102854.81;;;13.13;53.69
36260;BME280;22296;50.824;5.644;2023-02-10T10:58:44;102851.78;;;13.14;53.57
36260;BME280;22296;50.824;5.644;2023-02-10T11:01:14;102840.69;;;13.14;53.71
36260;BME280;22296;50.824;5.644;2023-02-10T11:03:41;102841.22;;;13.11;53.57
36260;BME280;22296;50.824;5.644;2023-02-10T11:06:14;102839.56;;;13.10;53.79
36260;BME280;22296;50.824;5.644;2023-02-10T11:08:52;102833.50;;;13.13;53.56
36260;BME280;22296;50.824;5.644;2023-02-10T11:11:37;102830.47;;;13.15;53.67
36260;BME280;22296;50.824;5.644;2023-02-10T11:14:41;102826.81;;;13.09;53.76
36260;BME280;22296;50.824;5.644;2023-02-10T11:17:23;102832.66;;;13.13;53.87
36260;BME280;22296;50.824;5.644;2023-02-10T11:22:59;102826.94;;;13.20;53.58
36260;BME280;22296;50.824;5.644;2023-02-10T11:25:35;102834.13;;;13.21;53.56
36260;BME280;22296;50.824;5.644;2023-02-10T11:28:06;102823.63;;;13.23;53.43
36260;BME280;22296;50.824;5.644;2023-02-10T11:30:38;102818.34;;;13.21;53.63
36260;BME280;22296;50.824;5.644;2023-02-10T11:33:15;102832.47;;;13.20;53.76
36260;BME280;22296;50.824;5.644;2023-02-10T11:35:49;102820.88;;;13.23;53.75
36260;BME280;22296;50.824;5.644;2023-02-10T11:38:20;102814.25;;;13.29;53.59
36260;BME280;22296;50.824;5.644;2023-02-10T11:43:27;102811.75;;;13.27;53.56
36260;BME280;22296;50.824;5.644;2023-02-10T11:46:01;102815.97;;;13.35;53.42
36260;BME280;22296;50.824;5.644;2023-02-10T11:48:28;102810.25;;;13.41;53.35
36260;BME280;22296;50.824;5.644;2023-02-10T11:53:36;102808.56;;;13.40;53.15
36260;BME280;22296;50.824;5.644;2023-02-10T11:56:44;102808.63;;;13.45;53.25
36260;BME280;22296;50.824;5.644;2023-02-10T12:00:08;102819.41;;;13.42;53.25
36260;BME280;22296;50.824;5.644;2023-02-10T12:08:07;102807.78;;;13.45;53.35
36260;BME280;22296;50.824;5.644;2023-02-10T12:13:32;102804.72;;;13.46;53.48
36260;BME280;22296;50.824;5.644;2023-02-10T12:16:04;102799.19;;;13.46;53.29
36260;BME280;22296;50.824;5.644;2023-02-10T12:18:43;102807.25;;;13.48;53.12
36260;BME280;22296;50.824;5.644;2023-02-10T12:21:26;102807.22;;;13.43;53.50
36260;BME280;22296;50.824;5.644;2023-02-10T12:24:12;102797.78;;;13.44;53.32
36260;BME280;22296;50.824;5.644;2023-02-10T12:32:41;102787.28;;;13.46;53.21
36260;BME280;22296;50.824;5.644;2023-02-10T12:49:23;102759.97;;;13.59;53.28
36260;BME280;22296;50.824;5.644;2023-02-10T12:54:32;102744.22;;;13.70;52.99
36260;BME280;22296;50.824;5.644;2023-02-10T12:57:18;102742.63;;;13.74;52.83
36260;BME280;22296;50.824;5.644;2023-02-10T13:00:27;102730.41;;;13.75;52.79
36260;BME280;22296;50.824;5.644;2023-02-10T13:03:22;102734.28;;;13.74;52.85
36260;BME280;22296;50.824;5.644;2023-02-10T13:05:51;102735.09;;;13.75;53.02
36260;BME280;22296;50.824;5.644;2023-02-10T13:08:49;102741.28;;;13.82;52.93
36260;BME280;22296;50.824;5.644;2023-02-10T13:11:41;102733.25;;;13.85;52.75
36260;BME280;22296;50.824;5.644;2023-02-10T13:14:18;102738.25;;;13.83;52.72
36260;BME280;22296;50.824;5.644;2023-02-10T13:16:52;102737.16;;;13.89;52.76
36260;BME280;22296;50.824;5.644;2023-02-10T13:19:45;102737.78;;;13.96;52.37
36260;BME280;22296;50.824;5.644;2023-02-10T13:22:22;102729.16;;;13.98;52.38
36260;BME280;22296;50.824;5.644;2023-02-10T13:28:12;102726.97;;;14.00;52.42
36260;BME280;22296;50.824;5.644;2023-02-10T13:31:13;102721.47;;;14.10;52.24
36260;BME280;22296;50.824;5.644;2023-02-10T13:36:15;102718.16;;;14.08;52.32
36260;BME280;22296;50.824;5.644;2023-02-10T13:38:43;102717.59;;;14.11;52.58
36260;BME280;22296;50.824;5.644;2023-02-10T13:41:25;102709.53;;;14.09;52.50
36260;BME280;22296;50.824;5.644;2023-02-10T13:46:52;102711.81;;;14.17;52.20
36260;BME280;22296;50.824;5.644;2023-02-10T13:49:21;102713.78;;;14.27;52.03
36260;BME280;22296;50.824;5.644;2023-02-10T13:51:51;102712.41;;;14.24;52.03
36260;BME280;22296;50.824;5.644;2023-02-10T13:54:28;102715.47;;;14.28;51.88
36260;BME280;22296;50.824;5.644;2023-02-10T13:56:57;102709.91;;;14.23;52.04
36260;BME280;22296;50.824;5.644;2023-02-10T13:59:34;102712.94;;;14.21;52.35
36260;BME280;22296;50.824;5.644;2023-02-10T14:02:20;102714.16;;;14.41;52.14
36260;BME280;22296;50.824;5.644;2023-02-10T14:04:53;102715.19;;;14.29;52.34
36260;BME280;22296;50.824;5.644;2023-02-10T14:10:26;102708.00;;;14.28;52.21
36260;BME280;22296;50.824;5.644;2023-02-10T14:12:57;102713.53;;;14.28;52.29
36260;BME280;22296;50.824;5.644;2023-02-10T14:15:34;102711.84;;;14.22;52.47
36260;BME280;22296;50.824;5.644;2023-02-10T14:18:04;102708.78;;;14.24;52.47
36260;BME280;22296;50.824;5.644;2023-02-10T14:20:54;102707.13;;;14.23;52.34
36260;BME280;22296;50.824;5.644;2023-02-10T14:23:22;102701.84;;;14.21;52.49
36260;BME280;22296;50.824;5.644;2023-02-10T14:25:55;102697.41;;;14.20;52.54
36260;BME280;22296;50.824;5.644;2023-02-10T14:28:33;102700.19;;;14.20;52.50
36260;BME280;22296;50.824;5.644;2023-02-10T14:31:13;102700.19;;;14.20;52.44
36260;BME280;22296;50.824;5.644;2023-02-10T14:33:56;102691.56;;;14.22;52.62
36260;BME280;22296;50.824;5.644;2023-02-10T14:36:24;102693.53;;;14.26;52.23
36260;BME280;22296;50.824;5.644;2023-02-10T14:38:56;102693.25;;;14.23;52.42
36260;BME280;22296;50.824;5.644;2023-02-10T14:41:24;102701.84;;;14.21;52.79
36260;BME280;22296;50.824;5.644;2023-02-10T14:43:52;102701.31;;;14.24;52.41
36260;BME280;22296;50.824;5.644;2023-02-10T14:46:28;102705.75;;;14.25;52.21
36260;BME280;22296;50.824;5.644;2023-02-10T14:49:07;102705.47;;;14.27;52.35